sensor_id;sensor_type;location;lat;lon;timestamp;P1;durP1;ratioP1;P2;durP2;ratioP2
73699;SDS011;62005;50.082;8.988;2024-01-07T00:02:07;2.17;;;1.67;;
73699;SDS011;62005;50.082;8.988;2024-01-07T00:04:32;2.58;;;1.80;;
73699;SDS011;62005;50.082;8.988;2024-01-07T00:06:59;2.08;;;0.95;;
73699;SDS011;62005;50.082;8.988;2024-01-07T00:09:25;2.38;;;1.73;;
73699;SDS011;62005;50.082;8.988;2024-01-07T00:11:50;2.73;;;1.73;;
73699;SDS011;62005;50.082;8.988;2024-01-07T00:14:16;2.58;;;1.45;;
73699;SDS011;62005;50.082;8.988;2024-01-07T00:16:42;2.08;;;1.50;;
73699;SDS011;62005;50.082;8.988;2024-01-07T00:19:08;3.00;;;1.85;;
73699;SDS011;62005;50.082;8.988;2024-01-07T00:21:33;2.95;;;1.85;;
73699;SDS011;62005;50.082;8.988;2024-01-07T00:23:59;3.35;;;2.58;;
73699;SDS011;62005;50.082;8.988;2024-01-07T00:26:25;2.25;;;1.88;;
73699;SDS011;62005;50.082;8.988;2024-01-07T00:28:50;2.00;;;0.77;;
73699;SDS011;62005;50.082;8.988;2024-01-07T00:31:16;2.08;;;1.88;;
73699;SDS011;62005;50.082;8.988;2024-01-07T00:33:41;1.80;;;1.50;;
73699;SDS011;62005;50.082;8.988;2024-01-07T00:36:07;2.33;;;1.48;;
73699;SDS011;62005;50.082;8.988;2024-01-07T00:38:32;1.70;;;1.25;;
73699;SDS011;62005;50.082;8.988;2024-01-07T00:40:57;1.67;;;1.40;;
73699;SDS011;62005;50.082;8.988;2024-01-07T00:43:23;1.80;;;1.45;;
73699;SDS011;62005;50.082;8.988;2024-01-07T00:45:48;2.17;;;1.58;;
73699;SDS011;62005;50.082;8.988;2024-01-07T00:48:14;1.77;;;1.30;;
73699;SDS011;62005;50.082;8.988;2024-01-07T00:50:40;2.05;;;1.83;;
73699;SDS011;62005;50.082;8.988;2024-01-07T00:53:05;2.53;;;2.33;;
73699;SDS011;62005;50.082;8.988;2024-01-07T00:55:31;1.20;;;0.80;;
73699;SDS011;62005;50.082;8.988;2024-01-07T00:57:56;1.90;;;0.50;;
73699;SDS011;62005;50.082;8.988;2024-01-07T01:00:21;2.93;;;1.50;;
73699;SDS011;62005;50.082;8.988;2024-01-07T01:02:47;2.38;;;0.82;;
73699;SDS011;62005;50.082;8.988;2024-01-07T01:05:12;1.70;;;1.20;;
73699;SDS011;62005;50.082;8.988;2024-01-07T01:07:38;2.15;;;1.60;;
73699;SDS011;62005;50.082;8.988;2024-01-07T01:10:03;1.77;;;1.20;;
73699;SDS011;62005;50.082;8.988;2024-01-07T01:12:29;2.35;;;1.27;;
73699;SDS011;62005;50.082;8.988;2024-01-07T01:14:55;2.25;;;1.90;;
73699;SDS011;62005;50.082;8.988;2024-01-07T01:17:20;2.83;;;1.40;;
73699;SDS011;62005;50.082;8.988;2024-01-07T01:19:46;3.85;;;1.73;;
73699;SDS011;62005;50.082;8.988;2024-01-07T01:22:11;1.98;;;1.48;;
73699;SDS011;62005;50.082;8.988;2024-01-07T01:24:36;1.88;;;1.27;;
73699;SDS011;62005;50.082;8.988;2024-01-07T01:27:02;2.42;;;1.48;;
73699;SDS011;62005;50.082;8.988;2024-01-07T01:29:27;2.00;;;1.23;;
73699;SDS011;62005;50.082;8.988;2024-01-07T01:31:53;1.92;;;0.55;;
73699;SDS011;62005;50.082;8.988;2024-01-07T01:34:18;2.28;;;1.42;;
73699;SDS011;62005;50.082;8.988;2024-01-07T01:36:44;7.10;;;1.00;;
73699;SDS011;62005;50.082;8.988;2024-01-07T01:39:09;2.67;;;1.97;;
73699;SDS011;62005;50.082;8.988;2024-01-07T01:41:34;2.10;;;0.73;;
73699;SDS011;62005;50.082;8.988;2024-01-07T01:44:00;1.50;;;0.93;;
73699;SDS011;62005;50.082;8.988;2024-01-07T01:46:26;2.60;;;1.65;;
73699;SDS011;62005;50.082;8.988;2024-01-07T01:48:54;2.70;;;2.10;;
73699;SDS011;62005;50.082;8.988;2024-01-07T01:51:19;1.98;;;1.58;;
73699;SDS011;62005;50.082;8.988;2024-01-07T01:53:45;3.17;;;2.88;;
73699;SDS011;62005;50.082;8.988;2024-01-07T01:56:14;1.67;;;1.17;;
73699;SDS011;62005;50.082;8.988;2024-01-07T01:58:45;2.58;;;1.65;;
73699;SDS011;62005;50.082;8.988;2024-01-07T02:01:12;2.05;;;1.63;;
73699;SDS011;62005;50.082;8.988;2024-01-07T02:03:38;2.40;;;1.65;;
73699;SDS011;62005;50.082;8.988;2024-01-07T02:06:04;1.98;;;1.45;;
73699;SDS011;62005;50.082;8.988;2024-01-07T02:08:29;2.08;;;1.48;;
73699;SDS011;62005;50.082;8.988;2024-01-07T02:10:55;3.53;;;1.73;;
73699;SDS011;62005;50.082;8.988;2024-01-07T02:13:20;2.77;;;1.03;;
73699;SDS011;62005;50.082;8.988;2024-01-07T02:15:46;3.38;;;1.45;;
73699;SDS011;62005;50.082;8.988;2024-01-07T02:18:11;2.85;;;1.60;;
73699;SDS011;62005;50.082;8.988;2024-01-07T02:20:37;2.28;;;1.50;;
73699;SDS011;62005;50.082;8.988;2024-01-07T02:23:03;2.83;;;2.57;;
73699;SDS011;62005;50.082;8.988;2024-01-07T02:25:34;2.50;;;1.65;;
73699;SDS011;62005;50.082;8.988;2024-01-07T02:28:00;3.15;;;1.67;;
73699;SDS011;62005;50.082;8.988;2024-01-07T02:30:26;2.80;;;1.70;;
73699;SDS011;62005;50.082;8.988;2024-01-07T02:32:52;3.05;;;2.42;;
73699;SDS011;62005;50.082;8.988;2024-01-07T02:35:17;3.13;;;2.75;;
73699;SDS011;62005;50.082;8.988;2024-01-07T02:37:43;2.35;;;1.70;;
73699;SDS011;62005;50.082;8.988;2024-01-07T02:40:08;4.53;;;2.17;;
73699;SDS011;62005;50.082;8.988;2024-01-07T02:42:34;2.60;;;1.98;;
73699;SDS011;62005;50.082;8.988;2024-01-07T02:45:00;3.67;;;1.98;;
73699;SDS011;62005;50.082;8.988;2024-01-07T02:47:25;2.97;;;1.50;;
73699;SDS011;62005;50.082;8.988;2024-01-07T02:49:51;2.70;;;1.70;;
73699;SDS011;62005;50.082;8.988;2024-01-07T02:52:16;2.47;;;1.67;;
73699;SDS011;62005;50.082;8.988;2024-01-07T02:54:42;2.05;;;1.60;;
73699;SDS011;62005;50.082;8.988;2024-01-07T02:57:07;3.40;;;2.40;;
73699;SDS011;62005;50.082;8.988;2024-01-07T02:59:32;2.47;;;1.67;;
73699;SDS011;62005;50.082;8.988;2024-01-07T03:01:58;2.67;;;2.47;;
73699;SDS011;62005;50.082;8.988;2024-01-07T03:04:23;2.57;;;2.30;;
73699;SDS011;62005;50.082;8.988;2024-01-07T03:06:49;3.72;;;1.13;;
73699;SDS011;62005;50.082;8.988;2024-01-07T03:09:14;2.38;;;1.33;;
73699;SDS011;62005;50.082;8.988;2024-01-07T03:11:40;1.98;;;1.10;;
73699;SDS011;62005;50.082;8.988;2024-01-07T03:14:09;2.55;;;2.35;;
73699;SDS011;62005;50.082;8.988;2024-01-07T03:16:35;3.42;;;1.75;;
73699;SDS011;62005;50.082;8.988;2024-01-07T03:19:00;2.17;;;0.90;;
73699;SDS011;62005;50.082;8.988;2024-01-07T03:21:27;2.35;;;1.83;;
73699;SDS011;62005;50.082;8.988;2024-01-07T03:23:52;3.33;;;2.53;;
73699;SDS011;62005;50.082;8.988;2024-01-07T03:26:18;2.40;;;1.80;;
73699;SDS011;62005;50.082;8.988;2024-01-07T03:28:44;3.38;;;2.38;;
73699;SDS011;62005;50.082;8.988;2024-01-07T03:31:11;3.55;;;2.88;;
73699;SDS011;62005;50.082;8.988;2024-01-07T03:33:38;2.92;;;2.05;;
73699;SDS011;62005;50.082;8.988;2024-01-07T03:36:10;4.57;;;2.40;;
73699;SDS011;62005;50.082;8.988;2024-01-07T03:38:37;2.25;;;1.83;;
73699;SDS011;62005;50.082;8.988;2024-01-07T03:41:03;3.50;;;2.10;;
73699;SDS011;62005;50.082;8.988;2024-01-07T03:43:29;3.40;;;2.40;;
73699;SDS011;62005;50.082;8.988;2024-01-07T03:45:54;5.35;;;1.98;;
73699;SDS011;62005;50.082;8.988;2024-01-07T03:48:19;4.40;;;2.47;;
73699;SDS011;62005;50.082;8.988;2024-01-07T03:50:45;5.18;;;3.80;;
73699;SDS011;62005;50.082;8.988;2024-01-07T03:53:10;3.88;;;1.90;;
73699;SDS011;62005;50.082;8.988;2024-01-07T03:55:36;4.40;;;1.75;;
73699;SDS011;62005;50.082;8.988;2024-01-07T03:58:01;4.30;;;2.30;;
73699;SDS011;62005;50.082;8.988;2024-01-07T04:00:28;3.38;;;2.17;;
73699;SDS011;62005;50.082;8.988;2024-01-07T04:02:53;3.40;;;2.33;;
73699;SDS011;62005;50.082;8.988;2024-01-07T04:05:19;4.25;;;2.40;;
73699;SDS011;62005;50.082;8.988;2024-01-07T04:07:44;4.10;;;2.73;;
73699;SDS011;62005;50.082;8.988;2024-01-07T04:10:09;5.23;;;3.27;;
73699;SDS011;62005;50.082;8.988;2024-01-07T04:12:36;4.40;;;2.85;;
73699;SDS011;62005;50.082;8.988;2024-01-07T04:15:02;5.55;;;2.70;;
73699;SDS011;62005;50.082;8.988;2024-01-07T04:17:27;5.35;;;2.90;;
73699;SDS011;62005;50.082;8.988;2024-01-07T04:19:53;4.50;;;3.08;;
73699;SDS011;62005;50.082;8.988;2024-01-07T04:22:19;4.97;;;2.70;;
73699;SDS011;62005;50.082;8.988;2024-01-07T04:24:45;4.97;;;3.25;;
73699;SDS011;62005;50.082;8.988;2024-01-07T04:27:10;5.50;;;3.63;;
73699;SDS011;62005;50.082;8.988;2024-01-07T04:29:36;4.18;;;3.03;;
73699;SDS011;62005;50.082;8.988;2024-01-07T04:32:01;5.28;;;3.50;;
73699;SDS011;62005;50.082;8.988;2024-01-07T04:34:27;4.68;;;1.95;;
73699;SDS011;62005;50.082;8.988;2024-01-07T04:36:53;5.18;;;3.10;;
73699;SDS011;62005;50.082;8.988;2024-01-07T04:39:18;6.03;;;3.17;;
73699;SDS011;62005;50.082;8.988;2024-01-07T04:41:44;5.47;;;3.53;;
73699;SDS011;62005;50.082;8.988;2024-01-07T04:44:09;6.73;;;3.37;;
73699;SDS011;62005;50.082;8.988;2024-01-07T04:46:37;4.95;;;3.10;;
73699;SDS011;62005;50.082;8.988;2024-01-07T04:49:03;6.80;;;4.03;;
73699;SDS011;62005;50.082;8.988;2024-01-07T04:51:29;4.18;;;2.13;;
73699;SDS011;62005;50.082;8.988;2024-01-07T04:53:55;7.40;;;2.40;;
73699;SDS011;62005;50.082;8.988;2024-01-07T04:56:20;5.63;;;3.42;;
73699;SDS011;62005;50.082;8.988;2024-01-07T04:58:45;7.90;;;3.70;;
73699;SDS011;62005;50.082;8.988;2024-01-07T05:01:11;6.13;;;3.10;;
73699;SDS011;62005;50.082;8.988;2024-01-07T05:03:36;8.15;;;4.18;;
73699;SDS011;62005;50.082;8.988;2024-01-07T05:06:03;6.75;;;4.30;;
73699;SDS011;62005;50.082;8.988;2024-01-07T05:08:29;7.75;;;4.25;;
73699;SDS011;62005;50.082;8.988;2024-01-07T05:10:54;8.52;;;5.32;;
73699;SDS011;62005;50.082;8.988;2024-01-07T05:13:20;6.38;;;3.80;;
73699;SDS011;62005;50.082;8.988;2024-01-07T05:15:46;7.63;;;3.63;;
73699;SDS011;62005;50.082;8.988;2024-01-07T05:18:18;7.63;;;4.18;;
73699;SDS011;62005;50.082;8.988;2024-01-07T05:20:47;7.07;;;4.22;;
73699;SDS011;62005;50.082;8.988;2024-01-07T05:23:12;7.57;;;4.68;;
73699;SDS011;62005;50.082;8.988;2024-01-07T05:25:38;10.05;;;5.97;;
73699;SDS011;62005;50.082;8.988;2024-01-07T05:28:03;6.75;;;3.63;;
73699;SDS011;62005;50.082;8.988;2024-01-07T05:30:29;6.72;;;4.53;;
73699;SDS011;62005;50.082;8.988;2024-01-07T05:32:54;6.38;;;4.65;;
73699;SDS011;62005;50.082;8.988;2024-01-07T05:35:20;8.03;;;4.47;;
73699;SDS011;62005;50.082;8.988;2024-01-07T05:37:45;7.97;;;5.40;;
73699;SDS011;62005;50.082;8.988;2024-01-07T05:40:10;8.02;;;3.17;;
73699;SDS011;62005;50.082;8.988;2024-01-07T05:42:36;9.75;;;5.25;;
73699;SDS011;62005;50.082;8.988;2024-01-07T05:45:01;6.33;;;3.03;;
73699;SDS011;62005;50.082;8.988;2024-01-07T05:47:28;6.72;;;4.75;;
73699;SDS011;62005;50.082;8.988;2024-01-07T05:49:53;8.05;;;5.00;;
73699;SDS011;62005;50.082;8.988;2024-01-07T05:52:18;7.78;;;3.88;;
73699;SDS011;62005;50.082;8.988;2024-01-07T05:54:44;8.15;;;4.43;;
73699;SDS011;62005;50.082;8.988;2024-01-07T05:57:10;7.28;;;4.97;;
73699;SDS011;62005;50.082;8.988;2024-01-07T05:59:37;9.07;;;4.40;;
73699;SDS011;62005;50.082;8.988;2024-01-07T06:02:02;6.90;;;4.15;;
73699;SDS011;62005;50.082;8.988;2024-01-07T06:04:28;9.23;;;4.78;;
73699;SDS011;62005;50.082;8.988;2024-01-07T06:06:53;6.25;;;4.25;;
73699;SDS011;62005;50.082;8.988;2024-01-07T06:09:19;8.68;;;4.93;;
73699;SDS011;62005;50.082;8.988;2024-01-07T06:11:45;7.25;;;3.53;;
73699;SDS011;62005;50.082;8.988;2024-01-07T06:14:10;6.20;;;3.17;;
73699;SDS011;62005;50.082;8.988;2024-01-07T06:16:36;7.23;;;3.80;;
73699;SDS011;62005;50.082;8.988;2024-01-07T06:19:01;11.23;;;4.77;;
73699;SDS011;62005;50.082;8.988;2024-01-07T06:21:26;6.28;;;3.78;;
73699;SDS011;62005;50.082;8.988;2024-01-07T06:23:52;7.17;;;2.73;;
73699;SDS011;62005;50.082;8.988;2024-01-07T06:26:17;5.40;;;3.97;;
73699;SDS011;62005;50.082;8.988;2024-01-07T06:28:43;7.45;;;3.95;;
73699;SDS011;62005;50.082;8.988;2024-01-07T06:31:08;6.53;;;3.78;;
73699;SDS011;62005;50.082;8.988;2024-01-07T06:33:33;7.37;;;3.63;;
73699;SDS011;62005;50.082;8.988;2024-01-07T06:35:59;7.03;;;3.55;;
73699;SDS011;62005;50.082;8.988;2024-01-07T06:38:25;8.05;;;4.65;;
73699;SDS011;62005;50.082;8.988;2024-01-07T06:40:51;5.73;;;3.93;;
73699;SDS011;62005;50.082;8.988;2024-01-07T06:43:16;5.78;;;3.20;;
73699;SDS011;62005;50.082;8.988;2024-01-07T06:45:42;6.32;;;3.55;;
73699;SDS011;62005;50.082;8.988;2024-01-07T06:48:08;5.22;;;2.92;;
73699;SDS011;62005;50.082;8.988;2024-01-07T06:50:34;5.65;;;3.15;;
73699;SDS011;62005;50.082;8.988;2024-01-07T06:53:00;7.22;;;4.03;;
73699;SDS011;62005;50.082;8.988;2024-01-07T06:55:25;5.93;;;3.55;;
73699;SDS011;62005;50.082;8.988;2024-01-07T06:57:50;6.07;;;2.63;;
73699;SDS011;62005;50.082;8.988;2024-01-07T07:00:16;5.97;;;3.63;;
73699;SDS011;62005;50.082;8.988;2024-01-07T07:02:42;6.68;;;3.80;;
73699;SDS011;62005;50.082;8.988;2024-01-07T07:05:08;5.72;;;3.40;;
73699;SDS011;62005;50.082;8.988;2024-01-07T07:07:34;5.82;;;5.18;;
73699;SDS011;62005;50.082;8.988;2024-01-07T07:10:00;6.43;;;2.50;;
73699;SDS011;62005;50.082;8.988;2024-01-07T07:12:25;5.90;;;3.97;;
73699;SDS011;62005;50.082;8.988;2024-01-07T07:14:51;5.97;;;2.95;;
73699;SDS011;62005;50.082;8.988;2024-01-07T07:17:16;7.37;;;4.73;;
73699;SDS011;62005;50.082;8.988;2024-01-07T07:19:41;8.07;;;4.07;;
73699;SDS011;62005;50.082;8.988;2024-01-07T07:22:07;8.45;;;4.57;;
73699;SDS011;62005;50.082;8.988;2024-01-07T07:24:32;6.82;;;4.47;;
73699;SDS011;62005;50.082;8.988;2024-01-07T07:26:58;8.95;;;6.07;;
73699;SDS011;62005;50.082;8.988;2024-01-07T07:29:23;6.95;;;3.83;;
73699;SDS011;62005;50.082;8.988;2024-01-07T07:31:49;6.10;;;3.78;;
73699;SDS011;62005;50.082;8.988;2024-01-07T07:34:14;7.25;;;4.28;;
73699;SDS011;62005;50.082;8.988;2024-01-07T07:36:40;6.25;;;3.88;;
73699;SDS011;62005;50.082;8.988;2024-01-07T07:39:06;5.35;;;3.65;;
73699;SDS011;62005;50.082;8.988;2024-01-07T07:41:32;5.75;;;2.72;;
73699;SDS011;62005;50.082;8.988;2024-01-07T07:43:57;4.60;;;3.35;;
73699;SDS011;62005;50.082;8.988;2024-01-07T07:46:23;6.85;;;4.00;;
73699;SDS011;62005;50.082;8.988;2024-01-07T07:48:48;6.85;;;4.50;;
73699;SDS011;62005;50.082;8.988;2024-01-07T07:51:14;7.78;;;5.40;;
73699;SDS011;62005;50.082;8.988;2024-01-07T07:53:39;8.05;;;4.57;;
73699;SDS011;62005;50.082;8.988;2024-01-07T07:56:05;7.25;;;4.72;;
73699;SDS011;62005;50.082;8.988;2024-01-07T07:58:31;9.25;;;4.28;;
73699;SDS011;62005;50.082;8.988;2024-01-07T08:00:56;7.60;;;5.60;;
73699;SDS011;62005;50.082;8.988;2024-01-07T08:03:23;8.75;;;4.30;;
73699;SDS011;62005;50.082;8.988;2024-01-07T08:05:48;6.47;;;3.53;;
73699;SDS011;62005;50.082;8.988;2024-01-07T08:08:15;6.65;;;2.95;;
73699;SDS011;62005;50.082;8.988;2024-01-07T08:10:41;5.20;;;3.90;;
73699;SDS011;62005;50.082;8.988;2024-01-07T08:13:07;6.25;;;4.90;;
73699;SDS011;62005;50.082;8.988;2024-01-07T08:15:34;6.75;;;4.90;;
73699;SDS011;62005;50.082;8.988;2024-01-07T08:18:00;5.45;;;3.20;;
73699;SDS011;62005;50.082;8.988;2024-01-07T08:20:28;7.00;;;4.45;;
73699;SDS011;62005;50.082;8.988;2024-01-07T08:22:54;6.95;;;4.47;;
73699;SDS011;62005;50.082;8.988;2024-01-07T08:25:19;6.65;;;3.00;;
73699;SDS011;62005;50.082;8.988;2024-01-07T08:27:45;6.60;;;3.85;;
73699;SDS011;62005;50.082;8.988;2024-01-07T08:30:10;5.22;;;3.67;;
73699;SDS011;62005;50.082;8.988;2024-01-07T08:32:38;5.97;;;3.90;;
73699;SDS011;62005;50.082;8.988;2024-01-07T08:35:04;5.93;;;4.05;;
73699;SDS011;62005;50.082;8.988;2024-01-07T08:37:30;5.57;;;3.70;;
73699;SDS011;62005;50.082;8.988;2024-01-07T08:39:55;5.80;;;3.77;;
73699;SDS011;62005;50.082;8.988;2024-01-07T08:42:20;5.00;;;2.63;;
73699;SDS011;62005;50.082;8.988;2024-01-07T08:44:46;5.23;;;2.47;;
73699;SDS011;62005;50.082;8.988;2024-01-07T08:47:12;4.88;;;3.42;;
73699;SDS011;62005;50.082;8.988;2024-01-07T08:49:38;6.90;;;4.07;;
73699;SDS011;62005;50.082;8.988;2024-01-07T08:52:04;5.18;;;3.45;;
73699;SDS011;62005;50.082;8.988;2024-01-07T08:54:35;4.22;;;3.35;;
73699;SDS011;62005;50.082;8.988;2024-01-07T08:57:01;5.38;;;3.95;;
73699;SDS011;62005;50.082;8.988;2024-01-07T08:59:26;5.53;;;3.50;;
73699;SDS011;62005;50.082;8.988;2024-01-07T09:01:52;5.67;;;4.07;;
73699;SDS011;62005;50.082;8.988;2024-01-07T09:04:17;6.15;;;4.05;;
73699;SDS011;62005;50.082;8.988;2024-01-07T09:06:43;5.45;;;3.45;;
73699;SDS011;62005;50.082;8.988;2024-01-07T09:09:09;7.72;;;4.32;;
73699;SDS011;62005;50.082;8.988;2024-01-07T09:11:34;5.47;;;4.37;;
73699;SDS011;62005;50.082;8.988;2024-01-07T09:14:01;6.22;;;3.80;;
73699;SDS011;62005;50.082;8.988;2024-01-07T09:16:27;7.78;;;4.50;;
73699;SDS011;62005;50.082;8.988;2024-01-07T09:18:52;7.45;;;4.60;;
73699;SDS011;62005;50.082;8.988;2024-01-07T09:21:17;5.43;;;3.70;;
73699;SDS011;62005;50.082;8.988;2024-01-07T09:23:44;4.75;;;2.53;;
73699;SDS011;62005;50.082;8.988;2024-01-07T09:26:09;5.68;;;3.28;;
73699;SDS011;62005;50.082;8.988;2024-01-07T09:28:36;5.90;;;5.03;;
73699;SDS011;62005;50.082;8.988;2024-01-07T09:31:01;5.47;;;3.70;;
73699;SDS011;62005;50.082;8.988;2024-01-07T09:33:26;5.50;;;4.00;;
73699;SDS011;62005;50.082;8.988;2024-01-07T09:35:52;5.68;;;3.55;;
73699;SDS011;62005;50.082;8.988;2024-01-07T09:38:19;5.43;;;3.45;;
73699;SDS011;62005;50.082;8.988;2024-01-07T09:40:44;8.95;;;4.82;;
73699;SDS011;62005;50.082;8.988;2024-01-07T09:43:10;8.52;;;4.05;;
73699;SDS011;62005;50.082;8.988;2024-01-07T09:45:36;7.28;;;3.10;;
73699;SDS011;62005;50.082;8.988;2024-01-07T09:48:04;6.40;;;3.75;;
73699;SDS011;62005;50.082;8.988;2024-01-07T09:50:30;6.85;;;4.13;;
73699;SDS011;62005;50.082;8.988;2024-01-07T09:52:56;5.03;;;2.72;;
73699;SDS011;62005;50.082;8.988;2024-01-07T09:55:27;6.03;;;3.55;;
73699;SDS011;62005;50.082;8.988;2024-01-07T09:57:58;7.55;;;3.85;;
73699;SDS011;62005;50.082;8.988;2024-01-07T10:00:27;10.60;;;6.22;;
73699;SDS011;62005;50.082;8.988;2024-01-07T10:02:53;5.72;;;3.70;;
73699;SDS011;62005;50.082;8.988;2024-01-07T10:05:19;6.03;;;4.72;;
73699;SDS011;62005;50.082;8.988;2024-01-07T10:07:44;4.75;;;2.47;;
73699;SDS011;62005;50.082;8.988;2024-01-07T10:10:16;6.07;;;3.07;;
73699;SDS011;62005;50.082;8.988;2024-01-07T10:12:45;7.88;;;4.38;;
73699;SDS011;62005;50.082;8.988;2024-01-07T10:15:14;6.18;;;3.42;;
73699;SDS011;62005;50.082;8.988;2024-01-07T10:17:41;6.20;;;3.88;;
73699;SDS011;62005;50.082;8.988;2024-01-07T10:22:38;6.78;;;4.88;;
73699;SDS011;62005;50.082;8.988;2024-01-07T10:25:05;5.10;;;4.05;;
73699;SDS011;62005;50.082;8.988;2024-01-07T10:27:34;7.40;;;4.20;;
73699;SDS011;62005;50.082;8.988;2024-01-07T10:30:02;5.90;;;3.75;;
73699;SDS011;62005;50.082;8.988;2024-01-07T10:32:28;7.90;;;4.45;;
73699;SDS011;62005;50.082;8.988;2024-01-07T10:34:55;6.05;;;4.05;;
73699;SDS011;62005;50.082;8.988;2024-01-07T10:37:27;6.82;;;3.78;;
73699;SDS011;62005;50.082;8.988;2024-01-07T10:39:52;6.97;;;2.75;;
73699;SDS011;62005;50.082;8.988;2024-01-07T10:42:22;7.47;;;4.75;;
73699;SDS011;62005;50.082;8.988;2024-01-07T10:44:48;9.00;;;4.03;;
73699;SDS011;62005;50.082;8.988;2024-01-07T10:47:13;6.88;;;4.55;;
73699;SDS011;62005;50.082;8.988;2024-01-07T10:49:44;7.35;;;4.47;;
73699;SDS011;62005;50.082;8.988;2024-01-07T10:52:15;6.25;;;4.00;;
73699;SDS011;62005;50.082;8.988;2024-01-07T10:54:42;5.90;;;3.50;;
73699;SDS011;62005;50.082;8.988;2024-01-07T10:59:38;6.70;;;4.55;;
73699;SDS011;62005;50.082;8.988;2024-01-07T11:04:41;6.60;;;3.70;;
73699;SDS011;62005;50.082;8.988;2024-01-07T11:12:36;5.03;;;3.50;;
73699;SDS011;62005;50.082;8.988;2024-01-07T11:15:02;8.10;;;4.45;;
73699;SDS011;62005;50.082;8.988;2024-01-07T11:19:58;6.25;;;3.03;;
73699;SDS011;62005;50.082;8.988;2024-01-07T11:22:26;6.03;;;3.47;;
73699;SDS011;62005;50.082;8.988;2024-01-07T11:24:53;9.35;;;3.67;;
73699;SDS011;62005;50.082;8.988;2024-01-07T11:27:21;5.10;;;3.83;;
73699;SDS011;62005;50.082;8.988;2024-01-07T11:29:57;6.68;;;3.85;;
73699;SDS011;62005;50.082;8.988;2024-01-07T11:32:29;5.20;;;3.10;;
73699;SDS011;62005;50.082;8.988;2024-01-07T11:34:54;7.32;;;3.65;;
73699;SDS011;62005;50.082;8.988;2024-01-07T11:37:22;5.25;;;3.67;;
73699;SDS011;62005;50.082;8.988;2024-01-07T11:39:50;7.22;;;3.58;;
73699;SDS011;62005;50.082;8.988;2024-01-07T11:42:20;5.60;;;4.43;;
73699;SDS011;62005;50.082;8.988;2024-01-07T11:44:48;7.18;;;4.22;;
73699;SDS011;62005;50.082;8.988;2024-01-07T11:47:16;6.32;;;4.30;;
73699;SDS011;62005;50.082;8.988;2024-01-07T11:49:42;5.93;;;3.70;;
73699;SDS011;62005;50.082;8.988;2024-01-07T11:52:08;6.35;;;3.97;;
73699;SDS011;62005;50.082;8.988;2024-01-07T11:54:35;4.82;;;3.58;;
73699;SDS011;62005;50.082;8.988;2024-01-07T11:57:07;7.72;;;3.30;;
73699;SDS011;62005;50.082;8.988;2024-01-07T11:59:33;6.03;;;4.18;;
73699;SDS011;62005;50.082;8.988;2024-01-07T12:02:03;8.07;;;4.50;;
73699;SDS011;62005;50.082;8.988;2024-01-07T12:04:32;6.88;;;4.53;;
73699;SDS011;62005;50.082;8.988;2024-01-07T12:06:57;7.25;;;3.75;;
73699;SDS011;62005;50.082;8.988;2024-01-07T12:09:24;6.78;;;3.83;;
73699;SDS011;62005;50.082;8.988;2024-01-07T12:11:50;4.82;;;2.58;;
73699;SDS011;62005;50.082;8.988;2024-01-07T12:14:15;8.27;;;4.47;;
73699;SDS011;62005;50.082;8.988;2024-01-07T12:16:42;7.03;;;3.60;;
73699;SDS011;62005;50.082;8.988;2024-01-07T12:19:10;16.77;;;6.60;;
73699;SDS011;62005;50.082;8.988;2024-01-07T12:21:36;40.42;;;15.35;;
73699;SDS011;62005;50.082;8.988;2024-01-07T12:24:03;7.93;;;4.93;;
73699;SDS011;62005;50.082;8.988;2024-01-07T12:26:29;8.20;;;5.65;;
73699;SDS011;62005;50.082;8.988;2024-01-07T12:28:55;5.90;;;3.42;;
73699;SDS011;62005;50.082;8.988;2024-01-07T12:31:32;6.82;;;4.30;;
73699;SDS011;62005;50.082;8.988;2024-01-07T12:33:58;6.30;;;3.78;;
73699;SDS011;62005;50.082;8.988;2024-01-07T12:36:24;6.03;;;4.10;;
73699;SDS011;62005;50.082;8.988;2024-01-07T12:38:50;6.20;;;3.83;;
73699;SDS011;62005;50.082;8.988;2024-01-07T12:41:19;6.50;;;4.25;;
73699;SDS011;62005;50.082;8.988;2024-01-07T12:43:45;9.32;;;4.45;;
73699;SDS011;62005;50.082;8.988;2024-01-07T12:46:10;6.05;;;4.15;;
73699;SDS011;62005;50.082;8.988;2024-01-07T12:48:36;5.68;;;4.57;;
73699;SDS011;62005;50.082;8.988;2024-01-07T12:51:01;5.97;;;4.30;;
73699;SDS011;62005;50.082;8.988;2024-01-07T12:53:27;8.98;;;2.90;;
73699;SDS011;62005;50.082;8.988;2024-01-07T12:55:53;5.68;;;4.07;;
73699;SDS011;62005;50.082;8.988;2024-01-07T12:58:19;4.75;;;2.47;;
73699;SDS011;62005;50.082;8.988;2024-01-07T13:00:45;5.93;;;2.45;;
73699;SDS011;62005;50.082;8.988;2024-01-07T13:03:11;8.98;;;4.50;;
73699;SDS011;62005;50.082;8.988;2024-01-07T13:05:42;7.20;;;4.43;;
73699;SDS011;62005;50.082;8.988;2024-01-07T13:08:11;6.85;;;3.97;;
73699;SDS011;62005;50.082;8.988;2024-01-07T13:10:38;7.50;;;3.85;;
73699;SDS011;62005;50.082;8.988;2024-01-07T13:13:03;7.03;;;3.60;;
73699;SDS011;62005;50.082;8.988;2024-01-07T13:15:29;6.65;;;3.80;;
73699;SDS011;62005;50.082;8.988;2024-01-07T13:17:54;5.35;;;3.35;;
73699;SDS011;62005;50.082;8.988;2024-01-07T13:20:20;3.88;;;2.08;;
73699;SDS011;62005;50.082;8.988;2024-01-07T13:22:45;5.73;;;3.53;;
73699;SDS011;62005;50.082;8.988;2024-01-07T13:25:11;5.30;;;3.53;;
73699;SDS011;62005;50.082;8.988;2024-01-07T13:27:37;6.32;;;3.97;;
73699;SDS011;62005;50.082;8.988;2024-01-07T13:30:04;4.88;;;2.55;;
73699;SDS011;62005;50.082;8.988;2024-01-07T13:32:30;5.07;;;2.90;;
73699;SDS011;62005;50.082;8.988;2024-01-07T13:35:00;3.63;;;2.30;;
73699;SDS011;62005;50.082;8.988;2024-01-07T13:37:25;3.50;;;3.17;;
73699;SDS011;62005;50.082;8.988;2024-01-07T13:39:50;3.63;;;1.90;;
73699;SDS011;62005;50.082;8.988;2024-01-07T13:42:16;3.58;;;2.72;;
73699;SDS011;62005;50.082;8.988;2024-01-07T13:44:41;3.45;;;2.10;;
73699;SDS011;62005;50.082;8.988;2024-01-07T13:47:11;3.67;;;2.42;;
73699;SDS011;62005;50.082;8.988;2024-01-07T13:49:40;3.25;;;2.55;;
73699;SDS011;62005;50.082;8.988;2024-01-07T13:52:06;3.78;;;3.38;;
73699;SDS011;62005;50.082;8.988;2024-01-07T13:54:31;2.20;;;1.13;;
73699;SDS011;62005;50.082;8.988;2024-01-07T13:56:57;4.03;;;2.90;;
73699;SDS011;62005;50.082;8.988;2024-01-07T13:59:23;3.95;;;2.55;;
73699;SDS011;62005;50.082;8.988;2024-01-07T14:01:48;3.70;;;2.47;;
73699;SDS011;62005;50.082;8.988;2024-01-07T14:04:14;3.75;;;2.33;;
73699;SDS011;62005;50.082;8.988;2024-01-07T14:06:40;3.72;;;2.40;;
73699;SDS011;62005;50.082;8.988;2024-01-07T14:09:05;4.27;;;2.87;;
73699;SDS011;62005;50.082;8.988;2024-01-07T14:11:33;4.93;;;3.22;;
73699;SDS011;62005;50.082;8.988;2024-01-07T14:13:59;3.47;;;2.45;;
73699;SDS011;62005;50.082;8.988;2024-01-07T14:16:24;2.25;;;1.95;;
73699;SDS011;62005;50.082;8.988;2024-01-07T14:18:50;3.10;;;2.47;;
73699;SDS011;62005;50.082;8.988;2024-01-07T14:21:15;2.55;;;2.35;;
73699;SDS011;62005;50.082;8.988;2024-01-07T14:23:40;2.22;;;2.03;;
73699;SDS011;62005;50.082;8.988;2024-01-07T14:26:09;2.75;;;2.42;;
73699;SDS011;62005;50.082;8.988;2024-01-07T14:28:34;2.33;;;2.05;;
73699;SDS011;62005;50.082;8.988;2024-01-07T14:31:00;5.93;;;2.85;;
73699;SDS011;62005;50.082;8.988;2024-01-07T14:33:26;2.58;;;2.00;;
73699;SDS011;62005;50.082;8.988;2024-01-07T14:35:52;2.95;;;2.40;;
73699;SDS011;62005;50.082;8.988;2024-01-07T14:38:17;2.97;;;2.60;;
73699;SDS011;62005;50.082;8.988;2024-01-07T14:40:43;2.90;;;2.03;;
73699;SDS011;62005;50.082;8.988;2024-01-07T14:43:11;3.13;;;2.40;;
73699;SDS011;62005;50.082;8.988;2024-01-07T14:45:37;4.55;;;2.55;;
73699;SDS011;62005;50.082;8.988;2024-01-07T14:48:02;4.35;;;3.88;;
73699;SDS011;62005;50.082;8.988;2024-01-07T14:50:28;4.35;;;2.75;;
73699;SDS011;62005;50.082;8.988;2024-01-07T14:52:54;4.65;;;2.10;;
73699;SDS011;62005;50.082;8.988;2024-01-07T14:55:19;3.10;;;2.63;;
73699;SDS011;62005;50.082;8.988;2024-01-07T14:57:45;6.22;;;0.93;;